Time;durP1;ratioP1;P1;durP2;ratioP2;P2;SDS_P1;SDS_P2;PMS_P1;PMS_P2;Temp;Humidity;BMP_temperature;BMP_pressure;BME280_temperature;BME280_humidity;BME280_pressure;Samples;Min_cycle;Max_cycle;Signal;HPM_P1;HPM_P2
2022/11/17 00:00:07;;;;;;;0.00;0.00;;;;;;;;;;1753730;28;20308;-69
2022/11/17 00:01:05;;;;;;;0.00;0.00;;;;;;;;;;1754435;28;20201;-70
2022/11/17 00:01:56;;;;;;;0.00;0.00;;;;;;;;;;1755994;28;20231;-69
2022/11/17 00:02:48;;;;;;;0.00;0.00;;;;;;;;;;1756122;28;20198;-69
2022/11/17 00:03:39;;;;;;;0.00;0.00;;;;;;;;;;1760550;28;20232;-69
2022/11/17 00:04:31;;;;;;;0.00;0.00;;;;;;;;;;1760156;28;20428;-69
2022/11/17 00:05:22;;;;;;;0.00;0.00;;;;;;;;;;1760685;28;20228;-70
2022/11/17 00:06:15;;;;;;;0.00;0.00;;;;;;;;;;1760318;28;20877;-69
2022/11/17 00:07:06;;;;;;;0.00;0.00;;;;;;;;;;1760578;28;20233;-69
2022/11/17 00:07:58;;;;;;;0.00;0.00;;;;;;;;;;1752849;28;20208;-69
2022/11/17 00:08:51;;;;;;;0.00;0.00;;;;;;;;;;1753327;28;20244;-69
2022/11/17 00:09:43;;;;;;;0.00;0.00;;;;;;;;;;1753216;28;20233;-69
2022/11/17 00:10:34;;;;;;;0.00;0.00;;;;;;;;;;1753290;28;20256;-69
2022/11/17 00:14:31;;;;;;;0.00;0.00;;;;;;;;;;1757209;28;20205;-69
2022/11/17 00:14:57;;;;;;;0.00;0.00;;;;;;;;;;1755399;28;20347;-69
2022/11/17 00:15:49;;;;;;;0.00;0.00;;;;;;;;;;1753983;28;20276;-69
2022/11/17 00:16:40;;;;;;;0.00;0.00;;;;;;;;;;1753601;28;20209;-69
2022/11/17 00:17:32;;;;;;;0.00;0.00;;;;;;;;;;1753970;28;20197;-69
2022/11/17 00:22:04;;;;;;;0.00;0.00;;;;;;;;;;1730971;28;20199;-69
2022/11/17 00:22:56;;;;;;;0.00;0.00;;;;;;;;;;1731990;28;20265;-69
2022/11/17 00:23:47;;;;;;;0.00;0.00;;;;;;;;;;1738360;28;20244;-69
2022/11/17 00:24:40;;;;;;;0.00;0.00;;;;;;;;;;1749764;28;20212;-69
2022/11/17 00:25:32;;;;;;;0.00;0.00;;;;;;;;;;1754225;28;20237;-69
2022/11/17 00:26:25;;;;;;;0.00;0.00;;;;;;;;;;1753765;28;20706;-69
2022/11/17 00:27:17;;;;;;;0.00;0.00;;;;;;;;;;1754002;28;20198;-69
2022/11/17 00:28:09;;;;;;;0.00;0.00;;;;;;;;;;1758095;28;20253;-69
2022/11/17 00:29:01;;;;;;;0.00;0.00;;;;;;;;;;1761179;28;20235;-69
2022/11/17 00:29:53;;;;;;;0.00;0.00;;;;;;;;;;1760605;28;20201;-70
2022/11/17 00:34:26;;;;;;;0.00;0.00;;;;;;;;;;1728316;28;20534;-69
2022/11/17 00:35:17;;;;;;;0.00;0.00;;;;;;;;;;1732811;28;20243;-69
2022/11/17 00:36:08;;;;;;;0.00;0.00;;;;;;;;;;1732023;28;20262;-69
2022/11/17 00:37:00;;;;;;;0.00;0.00;;;;;;;;;;1741892;28;20650;-69
2022/11/17 00:39:02;;;;;;;0.00;0.00;;;;;;;;;;1754182;28;20188;-69
2022/11/17 00:39:54;;;;;;;0.00;0.00;;;;;;;;;;1754699;28;20198;-69
2022/11/17 00:40:46;;;;;;;0.00;0.00;;;;;;;;;;1754214;28;20232;-69
2022/11/17 00:41:37;;;;;;;0.00;0.00;;;;;;;;;;1759342;28;20294;-69
2022/11/17 00:42:29;;;;;;;0.00;0.00;;;;;;;;;;1759757;28;20211;-69
2022/11/17 00:43:20;;;;;;;0.00;0.00;;;;;;;;;;1759919;28;20259;-69
2022/11/17 00:44:12;;;;;;;0.00;0.00;;;;;;;;;;1760576;28;20653;-69
2022/11/17 00:45:04;;;;;;;0.00;0.00;;;;;;;;;;1761384;28;20284;-69
2022/11/17 00:45:55;;;;;;;0.00;0.00;;;;;;;;;;1760859;28;20235;-69
2022/11/17 00:46:47;;;;;;;0.00;0.00;;;;;;;;;;1760892;28;20529;-69
2022/11/17 00:47:38;;;;;;;0.00;0.00;;;;;;;;;;1758701;28;20710;-69
2022/11/17 00:48:30;;;;;;;0.00;0.00;;;;;;;;;;1753763;28;20229;-69
2022/11/17 00:49:24;;;;;;;0.00;0.00;;;;;;;;;;1756260;28;20240;-69
2022/11/17 00:50:16;;;;;;;0.00;0.00;;;;;;;;;;1761024;28;20295;-69
2022/11/17 00:51:07;;;;;;;0.00;0.00;;;;;;;;;;1757983;28;20198;-69
2022/11/17 00:51:59;;;;;;;0.00;0.00;;;;;;;;;;1746629;28;20205;-69
2022/11/17 00:52:50;;;;;;;0.00;0.00;;;;;;;;;;1756729;28;20200;-69
2022/11/17 00:53:42;;;;;;;0.00;0.00;;;;;;;;;;1760935;28;20503;-69
2022/11/17 00:54:33;;;;;;;0.00;0.00;;;;;;;;;;1760400;28;20232;-69
2022/11/17 00:55:26;;;;;;;0.00;0.00;;;;;;;;;;1755665;28;20282;-69
2022/11/17 00:56:18;;;;;;;0.00;0.00;;;;;;;;;;1753254;28;20265;-69
2022/11/17 00:57:10;;;;;;;0.00;0.00;;;;;;;;;;1754019;28;20198;-69
2022/11/17 00:58:01;;;;;;;0.00;0.00;;;;;;;;;;1756786;28;20228;-69
2022/11/17 00:58:53;;;;;;;0.00;0.00;;;;;;;;;;1760708;28;20193;-69
2022/11/17 00:59:44;;;;;;;0.00;0.00;;;;;;;;;;1760645;28;20291;-69
2022/11/17 01:00:36;;;;;;;0.00;0.00;;;;;;;;;;1761277;28;20220;-70
2022/11/17 01:01:28;;;;;;;0.00;0.00;;;;;;;;;;1755725;28;20240;-69
2022/11/17 01:02:20;;;;;;;0.00;0.00;;;;;;;;;;1760757;28;20572;-69
2022/11/17 01:03:11;;;;;;;0.00;0.00;;;;;;;;;;1760228;28;20626;-69
2022/11/17 01:04:03;;;;;;;0.00;0.00;;;;;;;;;;1761220;28;20220;-69
2022/11/17 01:04:54;;;;;;;0.00;0.00;;;;;;;;;;1760429;28;20239;-69
2022/11/17 01:05:46;;;;;;;0.00;0.00;;;;;;;;;;1761377;28;20204;-69
2022/11/17 01:06:38;;;;;;;0.00;0.00;;;;;;;;;;1760789;28;20405;-69
2022/11/17 01:07:30;;;;;;;0.00;0.00;;;;;;;;;;1759751;28;20197;-69
2022/11/17 01:08:21;;;;;;;0.00;0.00;;;;;;;;;;1755788;28;20252;-69
2022/11/17 01:09:15;;;;;;;0.00;0.00;;;;;;;;;;1753970;28;20259;-69
2022/11/17 01:10:06;;;;;;;0.00;0.00;;;;;;;;;;1759689;28;20308;-69
2022/11/17 01:11:05;;;;;;;0.00;0.00;;;;;;;;;;1760477;28;20201;-69
2022/11/17 01:11:56;;;;;;;0.00;0.00;;;;;;;;;;1760865;28;20225;-70
2022/11/17 01:12:48;;;;;;;0.00;0.00;;;;;;;;;;1760667;28;20200;-69
2022/11/17 01:13:40;;;;;;;0.00;0.00;;;;;;;;;;1760378;28;20525;-69
2022/11/17 01:14:32;;;;;;;0.00;0.00;;;;;;;;;;1760801;28;20232;-69
2022/11/17 01:15:23;;;;;;;0.00;0.00;;;;;;;;;;1761149;28;20736;-69
2022/11/17 01:16:16;;;;;;;0.00;0.00;;;;;;;;;;1760520;28;20201;-69
2022/11/17 01:17:07;;;;;;;0.00;0.00;;;;;;;;;;1760591;28;20212;-69
2022/11/17 01:17:59;;;;;;;0.00;0.00;;;;;;;;;;1760609;28;20212;-69
2022/11/17 01:18:51;;;;;;;0.00;0.00;;;;;;;;;;1760732;28;20527;-69
2022/11/17 01:19:43;;;;;;;0.00;0.00;;;;;;;;;;1760541;28;20297;-69
2022/11/17 01:20:34;;;;;;;0.00;0.00;;;;;;;;;;1761334;28;20618;-69
2022/11/17 01:21:27;;;;;;;0.00;0.00;;;;;;;;;;1755352;28;20267;-69
2022/11/17 01:22:18;;;;;;;0.00;0.00;;;;;;;;;;1760869;28;20477;-69
2022/11/17 01:23:10;;;;;;;0.00;0.00;;;;;;;;;;1754426;28;20255;-69
2022/11/17 01:24:01;;;;;;;0.00;0.00;;;;;;;;;;1754802;28;20240;-69
2022/11/17 01:24:53;;;;;;;0.00;0.00;;;;;;;;;;1754944;28;20564;-69
2022/11/17 01:25:44;;;;;;;0.00;0.00;;;;;;;;;;1755337;28;20610;-69
2022/11/17 01:26:38;;;;;;;0.00;0.00;;;;;;;;;;1756603;28;20271;-69
2022/11/17 01:27:29;;;;;;;0.00;0.00;;;;;;;;;;1754983;28;20240;-69
2022/11/17 01:28:21;;;;;;;0.00;0.00;;;;;;;;;;1755019;28;20201;-69
2022/11/17 01:29:13;;;;;;;0.00;0.00;;;;;;;;;;1754929;28;20244;-69
2022/11/17 01:30:06;;;;;;;0.00;0.00;;;;;;;;;;1761703;28;20189;-69
2022/11/17 01:31:00;;;;;;;0.00;0.00;;;;;;;;;;1762015;28;20217;-69
2022/11/17 01:31:53;;;;;;;0.00;0.00;;;;;;;;;;1758436;28;20261;-69
2022/11/17 01:32:44;;;;;;;0.00;0.00;;;;;;;;;;1761828;28;20216;-69
2022/11/17 01:33:35;;;;;;;0.00;0.00;;;;;;;;;;1762007;28;20204;-69
2022/11/17 01:34:27;;;;;;;0.00;0.00;;;;;;;;;;1761497;28;20307;-69
2022/11/17 01:35:18;;;;;;;0.00;0.00;;;;;;;;;;1762377;28;20212;-70
2022/11/17 01:36:11;;;;;;;0.00;0.00;;;;;;;;;;1758872;28;20586;-69
2022/11/17 01:37:21;;;;;;;0.00;0.00;;;;;;;;;;1755014;28;20202;-69
2022/11/17 01:38:12;;;;;;;0.00;0.00;;;;;;;;;;1757723;28;20209;-69
2022/11/17 01:39:04;;;;;;;0.00;0.00;;;;;;;;;;1756732;28;20210;-69
2022/11/17 01:39:55;;;;;;;0.00;0.00;;;;;;;;;;1757213;28;20204;-69
2022/11/17 01:40:47;;;;;;;0.00;0.00;;;;;;;;;;1755020;28;20634;-70
2022/11/17 01:41:40;;;;;;;0.00;0.00;;;;;;;;;;1754752;28;20212;-69
2022/11/17 01:42:31;;;;;;;0.00;0.00;;;;;;;;;;1754479;28;20297;-69
2022/11/17 01:43:36;;;;;;;0.00;0.00;;;;;;;;;;1755027;28;20694;-69
2022/11/17 01:44:54;;;;;;;0.00;0.00;;;;;;;;;;1754539;28;20213;-69
2022/11/17 01:45:46;;;;;;;0.00;0.00;;;;;;;;;;1726982;28;20274;-69
2022/11/17 01:46:38;;;;;;;0.00;0.00;;;;;;;;;;1743182;28;20219;-69
2022/11/17 01:47:33;;;;;;;0.00;0.00;;;;;;;;;;1761976;28;20211;-69
2022/11/17 01:48:24;;;;;;;0.00;0.00;;;;;;;;;;1761755;28;20250;-69
2022/11/17 01:49:18;;;;;;;0.00;0.00;;;;;;;;;;1760441;28;20278;-69
2022/11/17 01:50:12;;;;;;;0.00;0.00;;;;;;;;;;1758524;28;20244;-69
2022/11/17 01:51:04;;;;;;;0.00;0.00;;;;;;;;;;1761561;28;20221;-69
2022/11/17 01:51:57;;;;;;;0.00;0.00;;;;;;;;;;1761781;28;20220;-69
2022/11/17 01:52:50;;;;;;;0.00;0.00;;;;;;;;;;1761712;28;20528;-69
2022/11/17 01:53:44;;;;;;;0.00;0.00;;;;;;;;;;1761953;28;20240;-69
2022/11/17 01:54:39;;;;;;;0.00;0.00;;;;;;;;;;1761591;28;20205;-69
2022/11/17 01:55:33;;;;;;;0.00;0.00;;;;;;;;;;1762124;28;20197;-70
2022/11/17 01:56:26;;;;;;;0.00;0.00;;;;;;;;;;1756116;28;20302;-69
2022/11/17 01:57:21;;;;;;;0.00;0.00;;;;;;;;;;1754825;28;20657;-69
2022/11/17 01:58:14;;;;;;;0.00;0.00;;;;;;;;;;1761139;28;20338;-69
2022/11/17 01:59:08;;;;;;;0.00;0.00;;;;;;;;;;1761879;28;20228;-69
2022/11/17 02:00:03;;;;;;;0.00;0.00;;;;;;;;;;1761706;28;20200;-69
2022/11/17 02:00:55;;;;;;;0.00;0.00;;;;;;;;;;1761605;28;20197;-69
2022/11/17 02:01:55;;;;;;;0.00;0.00;;;;;;;;;;1761751;28;20285;-69
2022/11/17 02:02:46;;;;;;;0.00;0.00;;;;;;;;;;1761768;28;20205;-69
2022/11/17 02:03:39;;;;;;;0.10;0.10;;;;;;;;;;1761737;28;20208;-69
2022/11/17 02:04:32;;;;;;;0.00;0.00;;;;;;;;;;1761624;28;20592;-69
2022/11/17 02:05:29;;;;;;;0.00;0.00;;;;;;;;;;1756627;28;20207;-69
2022/11/17 02:06:23;;;;;;;0.00;0.00;;;;;;;;;;1754833;28;20323;-69
2022/11/17 02:07:18;;;;;;;0.00;0.00;;;;;;;;;;1755106;28;20201;-69
2022/11/17 02:08:10;;;;;;;0.00;0.00;;;;;;;;;;1756048;28;20683;-69
2022/11/17 02:09:03;;;;;;;0.00;0.00;;;;;;;;;;1759846;28;20197;-69
2022/11/17 02:09:55;;;;;;;0.00;0.00;;;;;;;;;;1757494;28;20583;-69
2022/11/17 02:10:47;;;;;;;0.00;0.00;;;;;;;;;;1754900;28;20226;-69
2022/11/17 02:11:39;;;;;;;0.00;0.00;;;;;;;;;;1761267;28;20204;-69
2022/11/17 02:12:33;;;;;;;0.00;0.00;;;;;;;;;;1761735;28;20572;-69
2022/11/17 02:13:24;;;;;;;0.00;0.00;;;;;;;;;;1761849;28;20236;-69
2022/11/17 02:14:16;;;;;;;0.00;0.00;;;;;;;;;;1761508;28;20273;-69
2022/11/17 02:15:07;;;;;;;0.00;0.00;;;;;;;;;;1762130;28;20619;-69
2022/11/17 02:15:59;;;;;;;0.00;0.00;;;;;;;;;;1759568;28;20584;-69
2022/11/17 02:16:50;;;;;;;0.00;0.00;;;;;;;;;;1758065;28;20300;-69
2022/11/17 02:17:43;;;;;;;0.00;0.00;;;;;;;;;;1761606;28;20197;-69
2022/11/17 02:18:34;;;;;;;0.00;0.00;;;;;;;;;;1761933;28;20240;-69
2022/11/17 02:19:28;;;;;;;0.00;0.00;;;;;;;;;;1761692;28;20232;-69
2022/11/17 02:20:22;;;;;;;0.00;0.00;;;;;;;;;;1761952;28;20284;-69
2022/11/17 02:21:33;;;;;;;0.00;0.00;;;;;;;;;;1761270;28;20317;-69
2022/11/17 02:22:38;;;;;;;0.00;0.00;;;;;;;;;;1761592;28;20246;-69
2022/11/17 02:23:49;;;;;;;0.00;0.00;;;;;;;;;;1758161;28;20197;-69
2022/11/17 02:24:51;;;;;;;0.00;0.00;;;;;;;;;;1761655;28;20213;-69
2022/11/17 02:25:49;;;;;;;0.00;0.00;;;;;;;;;;1762258;28;20195;-70
2022/11/17 02:27:07;;;;;;;0.00;0.00;;;;;;;;;;1761465;28;20228;-69
2022/11/17 02:28:04;;;;;;;0.00;0.00;;;;;;;;;;1757519;28;20225;-69
2022/11/17 02:28:59;;;;;;;0.00;0.00;;;;;;;;;;1761767;28;20228;-69
2022/11/17 02:29:53;;;;;;;0.00;0.00;;;;;;;;;;1761558;28;20212;-69
2022/11/17 02:30:49;;;;;;;0.00;0.00;;;;;;;;;;1761869;28;20678;-69
2022/11/17 02:31:46;;;;;;;0.00;0.00;;;;;;;;;;1761419;28;20200;-69
2022/11/17 02:32:41;;;;;;;0.00;0.00;;;;;;;;;;1761325;28;20236;-69
2022/11/17 02:33:37;;;;;;;0.00;0.00;;;;;;;;;;1757860;28;20198;-69
2022/11/17 02:34:33;;;;;;;0.00;0.00;;;;;;;;;;1757544;28;20587;-69
2022/11/17 02:35:27;;;;;;;0.00;0.00;;;;;;;;;;1756210;28;20240;-69
2022/11/17 02:36:20;;;;;;;0.00;0.00;;;;;;;;;;1757157;28;20229;-69
2022/11/17 02:37:19;;;;;;;0.00;0.00;;;;;;;;;;1755231;28;20638;-69
2022/11/17 02:38:15;;;;;;;0.00;0.00;;;;;;;;;;1756192;28;20760;-69
2022/11/17 02:39:15;;;;;;;0.00;0.00;;;;;;;;;;1760146;28;20200;-69
2022/11/17 02:40:08;;;;;;;0.00;0.00;;;;;;;;;;1755921;28;20205;-69
2022/11/17 02:41:05;;;;;;;0.00;0.00;;;;;;;;;;1754386;28;20193;-69
2022/11/17 02:42:02;;;;;;;0.00;0.00;;;;;;;;;;1758776;28;20287;-69
2022/11/17 02:44:10;;;;;;;0.00;0.00;;;;;;;;;;1754831;28;20197;-69
2022/11/17 02:45:04;;;;;;;0.00;0.00;;;;;;;;;;1760311;28;20485;-69
2022/11/17 02:45:57;;;;;;;0.00;0.00;;;;;;;;;;1761530;28;20258;-69
2022/11/17 02:46:51;;;;;;;0.00;0.00;;;;;;;;;;1758406;28;20205;-69
2022/11/17 02:47:45;;;;;;;0.00;0.00;;;;;;;;;;1761029;28;20622;-69
2022/11/17 02:48:39;;;;;;;0.00;0.00;;;;;;;;;;1761570;28;20273;-69
2022/11/17 02:49:33;;;;;;;0.00;0.00;;;;;;;;;;1761184;28;20251;-69
2022/11/17 02:50:26;;;;;;;0.00;0.00;;;;;;;;;;1761875;28;20216;-69
2022/11/17 02:51:19;;;;;;;0.00;0.00;;;;;;;;;;1756775;28;20283;-69
2022/11/17 02:52:11;;;;;;;0.00;0.00;;;;;;;;;;1760489;28;20197;-69
2022/11/17 02:53:03;;;;;;;0.00;0.00;;;;;;;;;;1761205;28;20243;-69
2022/11/17 02:53:56;;;;;;;0.00;0.00;;;;;;;;;;1761725;28;20203;-69
2022/11/17 02:54:47;;;;;;;0.00;0.00;;;;;;;;;;1755317;28;20209;-69
2022/11/17 02:55:39;;;;;;;0.00;0.00;;;;;;;;;;1755056;28;20201;-69
2022/11/17 02:56:31;;;;;;;0.00;0.00;;;;;;;;;;1760247;28;20320;-69
2022/11/17 02:57:29;;;;;;;0.00;0.00;;;;;;;;;;1761505;28;20200;-69
2022/11/17 02:58:21;;;;;;;0.00;0.00;;;;;;;;;;1761453;28;20272;-69
2022/11/17 02:59:16;;;;;;;0.00;0.00;;;;;;;;;;1760446;28;20287;-69
2022/11/17 03:00:08;;;;;;;0.00;0.00;;;;;;;;;;1755009;28;20233;-69
2022/11/17 03:01:17;;;;;;;0.00;0.00;;;;;;;;;;1754283;28;20201;-69
2022/11/17 03:02:17;;;;;;;0.00;0.00;;;;;;;;;;1754001;28;20212;-69
2022/11/17 03:03:19;;;;;;;0.00;0.00;;;;;;;;;;1753937;28;20224;-69
2022/11/17 03:04:17;;;;;;;0.00;0.00;;;;;;;;;;1759932;27;20197;-69
2022/11/17 03:05:13;;;;;;;0.00;0.00;;;;;;;;;;1761802;28;20533;-69
2022/11/17 03:06:09;;;;;;;0.00;0.00;;;;;;;;;;1761081;28;20232;-69
2022/11/17 03:07:09;;;;;;;0.00;0.00;;;;;;;;;;1761400;28;20570;-69
2022/11/17 03:08:06;;;;;;;0.00;0.00;;;;;;;;;;1758554;28;20653;-69
2022/11/17 03:09:02;;;;;;;0.00;0.00;;;;;;;;;;1758975;28;20192;-69
2022/11/17 03:10:00;;;;;;;0.00;0.00;;;;;;;;;;1757079;28;20285;-69
2022/11/17 03:10:57;;;;;;;0.00;0.00;;;;;;;;;;1755299;28;20197;-69
2022/11/17 03:11:52;;;;;;;0.00;0.00;;;;;;;;;;1762068;27;20246;-69
2022/11/17 03:12:48;;;;;;;0.00;0.00;;;;;;;;;;1758771;28;20236;-69
2022/11/17 03:13:43;;;;;;;0.00;0.00;;;;;;;;;;1754382;28;20462;-69
2022/11/17 03:14:40;;;;;;;0.00;0.00;;;;;;;;;;1755892;28;20205;-69
2022/11/17 03:15:37;;;;;;;0.00;0.00;;;;;;;;;;1754847;28;20194;-69
2022/11/17 03:16:31;;;;;;;0.00;0.00;;;;;;;;;;1753919;28;20267;-69
2022/11/17 03:17:27;;;;;;;0.00;0.00;;;;;;;;;;1754464;28;20595;-69
2022/11/17 03:18:20;;;;;;;0.00;0.00;;;;;;;;;;1760692;28;20584;-69
2022/11/17 03:19:14;;;;;;;0.00;0.00;;;;;;;;;;1761238;28;20243;-69
2022/11/17 03:20:11;;;;;;;0.00;0.00;;;;;;;;;;1761663;28;20203;-69
2022/11/17 03:21:10;;;;;;;0.00;0.00;;;;;;;;;;1760825;28;20209;-69
2022/11/17 03:22:05;;;;;;;0.00;0.00;;;;;;;;;;1759189;28;20193;-69
2022/11/17 03:22:58;;;;;;;0.00;0.00;;;;;;;;;;1760969;28;20300;-69
2022/11/17 03:23:51;;;;;;;0.00;0.00;;;;;;;;;;1761137;28;20201;-69
2022/11/17 03:24:45;;;;;;;0.00;0.00;;;;;;;;;;1760914;28;20239;-69
2022/11/17 03:25:38;;;;;;;0.00;0.00;;;;;;;;;;1761759;28;20205;-69
2022/11/17 03:26:30;;;;;;;0.00;0.00;;;;;;;;;;1760974;28;20499;-69
2022/11/17 03:27:25;;;;;;;0.00;0.00;;;;;;;;;;1761489;28;20204;-69
2022/11/17 03:28:19;;;;;;;0.00;0.00;;;;;;;;;;1761297;28;20236;-69
2022/11/17 03:29:13;;;;;;;0.00;0.00;;;;;;;;;;1760788;28;20553;-69
2022/11/17 03:30:07;;;;;;;0.00;0.00;;;;;;;;;;1754686;28;20274;-69
2022/11/17 03:31:00;;;;;;;0.00;0.00;;;;;;;;;;1753925;28;20266;-69
2022/11/17 03:31:55;;;;;;;0.00;0.00;;;;;;;;;;1757577;28;20629;-69
2022/11/17 03:32:48;;;;;;;0.00;0.00;;;;;;;;;;1761000;28;20229;-69
2022/11/17 03:33:40;;;;;;;0.00;0.00;;;;;;;;;;1761418;28;20233;-69
2022/11/17 03:34:35;;;;;;;0.00;0.00;;;;;;;;;;1760991;28;20273;-69
2022/11/17 03:35:28;;;;;;;0.00;0.00;;;;;;;;;;1761590;28;20244;-69
2022/11/17 03:36:22;;;;;;;0.00;0.00;;;;;;;;;;1761227;28;20538;-69
2022/11/17 03:37:16;;;;;;;0.00;0.00;;;;;;;;;;1761186;28;20625;-69
2022/11/17 03:38:08;;;;;;;0.00;0.00;;;;;;;;;;1755241;27;20264;-69
2022/11/17 03:39:02;;;;;;;0.00;0.00;;;;;;;;;;1754160;28;20193;-69
2022/11/17 03:39:55;;;;;;;0.00;0.00;;;;;;;;;;1753524;28;20583;-69
2022/11/17 03:40:48;;;;;;;0.00;0.00;;;;;;;;;;1757380;28;20254;-69
2022/11/17 03:41:41;;;;;;;0.00;0.00;;;;;;;;;;1761007;28;20378;-69
2022/11/17 03:42:35;;;;;;;0.00;0.00;;;;;;;;;;1760247;28;20224;-69
2022/11/17 03:43:27;;;;;;;0.00;0.00;;;;;;;;;;1756964;28;20209;-69
2022/11/17 03:44:20;;;;;;;0.00;0.00;;;;;;;;;;1760946;28;20211;-69
2022/11/17 03:45:15;;;;;;;0.00;0.00;;;;;;;;;;1754592;28;20226;-69
2022/11/17 03:46:09;;;;;;;0.00;0.00;;;;;;;;;;1759736;28;20212;-69
2022/11/17 03:47:01;;;;;;;0.00;0.00;;;;;;;;;;1760096;28;20248;-69
2022/11/17 03:47:58;;;;;;;0.00;0.00;;;;;;;;;;1760951;28;20614;-69
2022/11/17 03:48:53;;;;;;;0.00;0.00;;;;;;;;;;1761070;28;20523;-69
2022/11/17 03:49:48;;;;;;;0.00;0.00;;;;;;;;;;1755282;28;20225;-69
2022/11/17 03:50:41;;;;;;;0.00;0.00;;;;;;;;;;1754528;28;20244;-69
2022/11/17 03:51:33;;;;;;;0.00;0.00;;;;;;;;;;1754500;28;20323;-69
2022/11/17 03:52:25;;;;;;;0.00;0.00;;;;;;;;;;1760929;28;20255;-69
2022/11/17 03:53:17;;;;;;;0.00;0.00;;;;;;;;;;1760590;28;20582;-69
2022/11/17 03:54:09;;;;;;;0.00;0.00;;;;;;;;;;1760784;28;20216;-69
2022/11/17 03:55:03;;;;;;;0.00;0.00;;;;;;;;;;1760596;28;20197;-69
2022/11/17 03:55:56;;;;;;;0.00;0.00;;;;;;;;;;1760446;28;20197;-69
2022/11/17 03:56:51;;;;;;;0.00;0.00;;;;;;;;;;1761180;28;20201;-69
2022/11/17 03:57:45;;;;;;;0.00;0.00;;;;;;;;;;1760685;28;20618;-69
2022/11/17 03:58:40;;;;;;;0.00;0.00;;;;;;;;;;1761056;28;20235;-69
2022/11/17 03:59:33;;;;;;;0.00;0.00;;;;;;;;;;1760673;28;20657;-69
2022/11/17 04:00:26;;;;;;;0.00;0.00;;;;;;;;;;1761139;28;20244;-69
2022/11/17 04:01:19;;;;;;;0.00;0.00;;;;;;;;;;1760597;28;20208;-69
2022/11/17 04:02:14;;;;;;;0.00;0.00;;;;;;;;;;1760656;28;20224;-69
2022/11/17 04:03:05;;;;;;;0.00;0.00;;;;;;;;;;1760781;28;20634;-69
2022/11/17 04:03:57;;;;;;;0.00;0.00;;;;;;;;;;1760899;28;20231;-69
2022/11/17 04:05:06;;;;;;;0.00;0.00;;;;;;;;;;1760602;28;20247;-69
2022/11/17 04:05:58;;;;;;;0.00;0.00;;;;;;;;;;1760605;28;20526;-69
2022/11/17 04:06:51;;;;;;;0.00;0.00;;;;;;;;;;1761190;28;20255;-69
2022/11/17 04:07:44;;;;;;;0.00;0.00;;;;;;;;;;1756298;28;20204;-69
2022/11/17 04:08:35;;;;;;;0.00;0.00;;;;;;;;;;1757162;28;20247;-69
2022/11/17 04:09:27;;;;;;;0.00;0.00;;;;;;;;;;1753598;28;20202;-69
2022/11/17 04:10:19;;;;;;;0.00;0.00;;;;;;;;;;1756131;28;20271;-69
2022/11/17 04:15:57;;;;;;;0.00;0.00;;;;;;;;;;1754488;28;20217;-69
2022/11/17 04:16:48;;;;;;;0.00;0.00;;;;;;;;;;1760727;28;20571;-69
2022/11/17 04:17:40;;;;;;;0.00;0.00;;;;;;;;;;1760766;28;20238;-69
2022/11/17 04:18:32;;;;;;;0.00;0.00;;;;;;;;;;1760665;28;20211;-69
2022/11/17 04:19:24;;;;;;;0.00;0.00;;;;;;;;;;1760567;28;20209;-69
2022/11/17 04:20:15;;;;;;;0.00;0.00;;;;;;;;;;1761198;28;20212;-69
2022/11/17 04:21:07;;;;;;;0.00;0.00;;;;;;;;;;1760577;28;20320;-69
2022/11/17 04:21:58;;;;;;;0.00;0.00;;;;;;;;;;1760570;28;20208;-69
2022/11/17 04:23:05;;;;;;;0.10;0.10;;;;;;;;;;1760497;28;20212;-69
2022/11/17 04:23:57;;;;;;;0.00;0.00;;;;;;;;;;1761199;28;20189;-69
2022/11/17 04:24:49;;;;;;;0.00;0.00;;;;;;;;;;1760355;28;20214;-69
2022/11/17 04:29:11;;;;;;;0.00;0.00;;;;;;;;;;1754272;28;20262;-69
2022/11/17 04:30:03;;;;;;;0.00;0.00;;;;;;;;;;1760648;28;20243;-69
2022/11/17 04:30:56;;;;;;;0.00;0.00;;;;;;;;;;1760619;28;20327;-69
2022/11/17 04:31:48;;;;;;;0.00;0.00;;;;;;;;;;1753662;28;20582;-69
2022/11/17 04:32:39;;;;;;;0.00;0.00;;;;;;;;;;1753551;28;20672;-69
2022/11/17 04:33:30;;;;;;;0.00;0.00;;;;;;;;;;1753796;28;20217;-69
2022/11/17 04:34:22;;;;;;;0.00;0.00;;;;;;;;;;1756127;28;20193;-69
2022/11/17 04:35:13;;;;;;;0.00;0.00;;;;;;;;;;1761077;28;20256;-69
2022/11/17 04:36:05;;;;;;;0.00;0.00;;;;;;;;;;1760698;28;20276;-69
2022/11/17 04:36:57;;;;;;;0.00;0.00;;;;;;;;;;1760408;28;20566;-69
2022/11/17 04:37:48;;;;;;;0.00;0.00;;;;;;;;;;1757501;28;20631;-69
2022/11/17 04:38:41;;;;;;;0.00;0.00;;;;;;;;;;1758104;28;20207;-69
2022/11/17 04:39:32;;;;;;;0.00;0.00;;;;;;;;;;1760416;28;20558;-69
2022/11/17 04:40:24;;;;;;;0.00;0.00;;;;;;;;;;1761421;28;20229;-69
2022/11/17 04:42:26;;;;;;;0.00;0.00;;;;;;;;;;1753726;28;20197;-69
2022/11/17 04:43:17;;;;;;;0.00;0.00;;;;;;;;;;1760727;28;20200;-69
2022/11/17 04:44:10;;;;;;;0.00;0.00;;;;;;;;;;1760865;28;20197;-69
2022/11/17 04:45:04;;;;;;;0.00;0.00;;;;;;;;;;1760914;28;20258;-69
2022/11/17 04:46:00;;;;;;;0.00;0.00;;;;;;;;;;1760788;28;20192;-69
2022/11/17 04:46:52;;;;;;;0.00;0.00;;;;;;;;;;1760955;28;20300;-69
2022/11/17 04:47:43;;;;;;;0.00;0.00;;;;;;;;;;1760217;28;20204;-69
2022/11/17 04:48:34;;;;;;;0.00;0.00;;;;;;;;;;1760961;28;20238;-69
2022/11/17 04:49:26;;;;;;;0.00;0.00;;;;;;;;;;1757939;28;20200;-69
2022/11/17 04:50:18;;;;;;;0.00;0.00;;;;;;;;;;1754268;28;20782;-69
2022/11/17 04:51:10;;;;;;;0.00;0.00;;;;;;;;;;1753362;28;20201;-69
2022/11/17 04:52:01;;;;;;;0.00;0.00;;;;;;;;;;1758211;28;20710;-69
2022/11/17 04:52:53;;;;;;;0.00;0.00;;;;;;;;;;1760294;28;20557;-69
2022/11/17 04:53:44;;;;;;;0.00;0.00;;;;;;;;;;1760714;28;20244;-69
2022/11/17 04:54:36;;;;;;;0.00;0.00;;;;;;;;;;1760498;28;20243;-69
2022/11/17 04:55:27;;;;;;;0.03;0.03;;;;;;;;;;1758924;28;20200;-69
2022/11/17 04:56:20;;;;;;;0.00;0.00;;;;;;;;;;1757764;28;20244;-69
2022/11/17 04:57:12;;;;;;;0.00;0.00;;;;;;;;;;1760264;28;20209;-69
2022/11/17 04:58:03;;;;;;;0.00;0.00;;;;;;;;;;1759841;28;21015;-69
2022/11/17 04:58:55;;;;;;;0.00;0.00;;;;;;;;;;1762210;28;20224;-69
2022/11/17 04:59:47;;;;;;;0.00;0.00;;;;;;;;;;1759900;28;20581;-69
2022/11/17 05:00:38;;;;;;;0.00;0.00;;;;;;;;;;1755677;28;20705;-69
2022/11/17 05:01:31;;;;;;;0.00;0.00;;;;;;;;;;1760759;28;20299;-69
2022/11/17 05:02:22;;;;;;;0.00;0.00;;;;;;;;;;1762225;28;20245;-69
2022/11/17 05:03:14;;;;;;;0.00;0.00;;;;;;;;;;1761870;28;20250;-69
2022/11/17 05:04:06;;;;;;;0.00;0.00;;;;;;;;;;1759625;28;20243;-69
2022/11/17 05:04:58;;;;;;;0.00;0.00;;;;;;;;;;1761789;28;20526;-69
2022/11/17 05:05:50;;;;;;;0.00;0.00;;;;;;;;;;1762519;28;20668;-69
2022/11/17 05:06:43;;;;;;;0.00;0.00;;;;;;;;;;1760848;28;20200;-69
2022/11/17 05:07:34;;;;;;;0.00;0.00;;;;;;;;;;1762248;28;20243;-69
2022/11/17 05:08:25;;;;;;;0.00;0.00;;;;;;;;;;1761795;28;20723;-69
2022/11/17 05:09:17;;;;;;;0.00;0.00;;;;;;;;;;1761801;28;20201;-69
2022/11/17 05:10:09;;;;;;;0.00;0.00;;;;;;;;;;1759247;28;20239;-69
2022/11/17 05:13:24;;;;;;;0.00;0.00;;;;;;;;;;1762157;28;20192;-69
2022/11/17 05:14:17;;;;;;;0.00;0.00;;;;;;;;;;1761882;28;20581;-69
2022/11/17 05:15:09;;;;;;;0.00;0.00;;;;;;;;;;1762476;28;20229;-69
2022/11/17 05:17:11;;;;;;;0.00;0.00;;;;;;;;;;1762206;28;20197;-69
2022/11/17 05:18:02;;;;;;;0.00;0.00;;;;;;;;;;1762253;28;20258;-69
2022/11/17 05:18:54;;;;;;;0.00;0.00;;;;;;;;;;1748367;28;20301;-69
2022/11/17 05:19:46;;;;;;;0.00;0.00;;;;;;;;;;1753914;28;20205;-69
2022/11/17 05:20:37;;;;;;;0.00;0.00;;;;;;;;;;1755528;28;20202;-69
2022/11/17 05:21:28;;;;;;;0.00;0.00;;;;;;;;;;1755289;28;20796;-69
2022/11/17 05:24:41;;;;;;;0.00;0.00;;;;;;;;;;1761789;28;20639;-69
2022/11/17 05:25:32;;;;;;;0.00;0.00;;;;;;;;;;1762434;28;20581;-69
2022/11/17 05:26:25;;;;;;;0.00;0.00;;;;;;;;;;1762004;28;20219;-69
2022/11/17 05:27:16;;;;;;;0.00;0.00;;;;;;;;;;1762073;28;20231;-69
2022/11/17 05:28:08;;;;;;;0.00;0.00;;;;;;;;;;1761893;28;20197;-69
2022/11/17 05:29:00;;;;;;;0.00;0.00;;;;;;;;;;1762122;28;20236;-69
2022/11/17 05:29:52;;;;;;;0.00;0.00;;;;;;;;;;1761596;28;20201;-69
2022/11/17 05:30:43;;;;;;;0.00;0.00;;;;;;;;;;1762498;28;20201;-69
2022/11/17 05:31:35;;;;;;;0.00;0.00;;;;;;;;;;1761529;28;20522;-69
2022/11/17 05:32:28;;;;;;;0.00;0.00;;;;;;;;;;1761849;28;20260;-68
2022/11/17 05:33:19;;;;;;;0.00;0.00;;;;;;;;;;1761810;28;20224;-68
2022/11/17 05:34:12;;;;;;;0.00;0.00;;;;;;;;;;1762115;28;20465;-68
2022/11/17 05:35:06;;;;;;;0.00;0.00;;;;;;;;;;1762047;28;20243;-69
2022/11/17 05:35:58;;;;;;;0.00;0.00;;;;;;;;;;1761719;28;20275;-69
2022/11/17 05:36:49;;;;;;;0.00;0.00;;;;;;;;;;1762195;28;20208;-69
2022/11/17 05:37:41;;;;;;;0.00;0.00;;;;;;;;;;1761755;28;20212;-69
2022/11/17 05:38:32;;;;;;;0.00;0.00;;;;;;;;;;1761738;28;20239;-69
2022/11/17 05:39:24;;;;;;;0.00;0.00;;;;;;;;;;1759352;28;20201;-69
2022/11/17 05:40:16;;;;;;;0.00;0.00;;;;;;;;;;1754066;28;20571;-69
2022/11/17 05:41:07;;;;;;;0.00;0.00;;;;;;;;;;1756095;28;20198;-69
2022/11/17 05:41:59;;;;;;;0.00;0.00;;;;;;;;;;1758961;28;20193;-69
2022/11/17 05:42:50;;;;;;;0.00;0.00;;;;;;;;;;1761912;28;20245;-69
2022/11/17 05:43:42;;;;;;;0.00;0.00;;;;;;;;;;1761920;28;20201;-69
2022/11/17 05:44:33;;;;;;;0.00;0.00;;;;;;;;;;1761815;28;20250;-69
2022/11/17 05:45:25;;;;;;;0.00;0.00;;;;;;;;;;1762227;28;20285;-69
2022/11/17 05:46:16;;;;;;;0.00;0.00;;;;;;;;;;1761693;28;20661;-69
2022/11/17 05:47:08;;;;;;;0.00;0.00;;;;;;;;;;1762130;28;20258;-69